Marla Bay, Nevada
Current Conditions -  °F | °C
As of 1:53 AM on Sunday 21 Dec 2014 (Local Time) from KTVL Reporting Station
Overcast Overcast  
Wind Chill: 40°   Ceiling: 3000
Heat Index: 45°   Visibility: 10mi
Dew Point: 35°   Wind: 9mph
Humidity: 68%   Direction: 170°S
Pressure: 30.27"   Gusts: NA
Location:  39.0164°N, 119.925°W
Report Text: KTVL 210953Z AUTO 17008KT 10SM OVC030 07/02 A3027 RMK AO2 SLP229 T00720017
Loading
Personal Weather Stations






























Interactive Weather Map New forecast layout! Learn more

10-Day Weather Forecast

Advertisements
Track Severe Weather on mobile